Time;durP1;ratioP1;P1;durP2;ratioP2;P2;SDS_P1;SDS_P2;PMS_P1;PMS_P2;Temp;Humidity;BMP_temperature;BMP_pressure;BME280_temperature;BME280_humidity;BME280_pressure;Samples;Min_cycle;Max_cycle;Signal;HPM_P1;HPM_P2
2021/08/19 00:02:07;;;;;;;;;;;;;;;16.70;63.49;98050.34;1771027;80;20233;-86
2021/08/19 00:04:33;;;;;;;;;;;;;;;16.76;63.56;98045.77;1765059;80;25007;-86
2021/08/19 00:06:59;;;;;;;;;;;;;;;16.77;63.60;98050.07;1768053;80;22121;-86
2021/08/19 00:09:25;;;;;;;;;;;;;;;16.79;63.67;98050.76;1765785;80;21196;-87
2021/08/19 00:11:51;;;;;;;;;;;;;;;16.76;63.73;98045.77;1762749;80;24467;-87
2021/08/19 00:14:17;;;;;;;;;;;;;;;16.72;63.75;98041.30;1766809;80;20831;-87
2021/08/19 00:16:43;;;;;;;;;;;;;;;16.72;63.81;98047.06;1761786;80;20289;-87
2021/08/19 00:19:09;;;;;;;;;;;;;;;16.69;63.85;98040.27;1768499;80;22722;-87
2021/08/19 00:21:40;;;;;;;;;;;;;;;16.67;63.89;98038.78;1766641;80;25907;-87
2021/08/19 00:24:06;;;;;;;;;;;;;;;16.66;63.95;98045.88;1760408;80;25236;-87
2021/08/19 00:26:32;;;;;;;;;;;;;;;16.62;64.00;98042.37;1763869;80;21520;-87
2021/08/19 00:29:01;;;;;;;;;;;;;;;16.64;64.07;98048.31;1778553;79;20845;-87
2021/08/19 00:31:28;;;;;;;;;;;;;;;16.64;64.14;98046.51;1769030;80;21999;-87
2021/08/19 00:33:55;;;;;;;;;;;;;;;16.65;64.22;98047.34;1763933;80;26024;-86
2021/08/19 00:36:21;;;;;;;;;;;;;;;16.68;64.29;98051.02;1769695;80;24411;-86
2021/08/19 00:38:51;;;;;;;;;;;;;;;16.74;64.35;98060.97;1764951;80;20301;-85
2021/08/19 00:41:22;;;;;;;;;;;;;;;16.73;64.42;98057.98;1764486;80;24523;-86
2021/08/19 00:43:45;;;;;;;;;;;;;;;16.70;64.49;98057.78;1765565;80;22186;-85
2021/08/19 00:46:28;;;;;;;;;;;;;;;16.70;64.55;98045.06;1766818;80;21170;-86
2021/08/19 00:48:55;;;;;;;;;;;;;;;16.72;64.62;98050.55;1767006;80;24606;-86
2021/08/19 00:51:22;;;;;;;;;;;;;;;16.73;64.68;98049.56;1767926;80;20245;-85
2021/08/19 00:53:48;;;;;;;;;;;;;;;16.71;64.69;98041.44;1767948;80;25722;-86
2021/08/19 00:56:14;;;;;;;;;;;;;;;16.72;64.72;98048.39;1763419;80;21928;-85
2021/08/19 00:58:41;;;;;;;;;;;;;;;16.69;64.76;98044.23;1763244;80;26038;-86
2021/08/19 01:01:08;;;;;;;;;;;;;;;16.69;64.82;98039.47;1767828;80;25579;-86
2021/08/19 01:03:34;;;;;;;;;;;;;;;16.68;64.88;98045.73;1772146;80;20630;-86
2021/08/19 01:06:00;;;;;;;;;;;;;;;16.68;64.93;98051.02;1781353;80;20291;-86
2021/08/19 01:08:26;;;;;;;;;;;;;;;16.65;65.00;98044.21;1775811;79;20307;-86
2021/08/19 01:10:53;;;;;;;;;;;;;;;16.63;65.05;98045.36;1776572;80;21044;-86
2021/08/19 01:13:19;;;;;;;;;;;;;;;16.61;65.10;98047.31;1776068;80;24415;-85
2021/08/19 01:15:45;;;;;;;;;;;;;;;16.62;65.18;98047.66;1773380;80;20279;-86
2021/08/19 01:18:15;;;;;;;;;;;;;;;16.62;65.24;98051.63;1806748;78;25060;-85
2021/08/19 01:20:41;;;;;;;;;;;;;;;16.62;65.32;98048.50;1791466;79;22064;-86
2021/08/19 01:23:08;;;;;;;;;;;;;;;16.60;65.36;98051.77;1797685;78;26041;-85
2021/08/19 01:25:34;;;;;;;;;;;;;;;16.61;65.43;98052.11;1771175;80;20232;-85
2021/08/19 01:28:00;;;;;;;;;;;;;;;16.61;65.49;98053.92;1800237;78;20507;-85
2021/08/19 01:30:27;;;;;;;;;;;;;;;16.64;65.54;98054.44;1792008;79;24337;-86
2021/08/19 01:32:53;;;;;;;;;;;;;;;16.64;65.59;98054.92;1762238;80;22087;-86
2021/08/19 01:35:20;;;;;;;;;;;;;;;16.61;65.66;98059.20;1797581;79;26007;-86
2021/08/19 01:37:48;;;;;;;;;;;;;;;16.60;65.69;98048.30;1789055;79;24475;-90
2021/08/19 01:40:14;;;;;;;;;;;;;;;16.62;65.77;98051.63;1756321;80;20494;-89
2021/08/19 01:42:44;;;;;;;;;;;;;;;16.61;65.81;98047.31;1799032;79;25061;-88
2021/08/19 01:45:15;;;;;;;;;;;;;;;16.60;65.87;98045.66;1803575;78;21972;-89
2021/08/19 01:50:29;;;;;;;;;;;;;;;16.58;66.00;98042.33;1665675;85;24707;-86
2021/08/19 01:52:55;;;;;;;;;;;;;;;16.58;66.04;98045.77;1663996;84;20266;-86
2021/08/19 01:55:21;;;;;;;;;;;;;;;16.60;66.10;98044.34;1668716;85;25025;-86
2021/08/19 01:57:49;;;;;;;;;;;;;;;16.59;66.12;98047.46;1659906;84;21960;-86
2021/08/19 02:00:15;;;;;;;;;;;;;;;16.59;66.18;98040.03;1690520;83;26060;-87
2021/08/19 02:02:41;;;;;;;;;;;;;;;16.62;66.25;98041.05;1667358;85;24330;-86
2021/08/19 02:05:13;;;;;;;;;;;;;;;16.64;66.29;98035.94;1667817;84;20227;-86
2021/08/19 02:07:39;;;;;;;;;;;;;;;16.66;66.35;98035.80;1666319;84;25040;-85
2021/08/19 02:10:08;;;;;;;;;;;;;;;16.66;66.39;98032.66;1676451;84;22172;-85
2021/08/19 02:12:34;;;;;;;;;;;;;;;16.64;66.44;98038.58;1669323;84;26061;-86
2021/08/19 02:15:00;;;;;;;;;;;;;;;16.62;66.46;98038.41;1669178;84;20260;-86
2021/08/19 02:17:26;;;;;;;;;;;;;;;16.61;66.50;98039.39;1667261;84;20851;-86
2021/08/19 02:19:52;;;;;;;;;;;;;;;16.59;66.53;98042.67;1667535;84;25030;-85
2021/08/19 02:22:18;;;;;;;;;;;;;;;16.60;66.60;98041.69;1651376;85;20381;-84
2021/08/19 02:24:46;;;;;;;;;;;;;;;16.59;66.62;98038.22;1668438;84;21171;-85
2021/08/19 02:27:12;;;;;;;;;;;;;;;16.59;66.66;98043.50;1665047;84;24416;-85
2021/08/19 02:29:38;;;;;;;;;;;;;;;16.55;66.66;98047.41;1675070;84;20274;-86
2021/08/19 02:32:08;;;;;;;;;;;;;;;16.50;66.70;98043.08;1671027;84;25980;-86
2021/08/19 02:34:33;;;;;;;;;;;;;;;16.51;66.74;98042.59;1668478;84;22118;-84
2021/08/19 02:36:59;;;;;;;;;;;;;;;16.48;66.79;98043.72;1684596;83;26031;-85
2021/08/19 02:39:25;;;;;;;;;;;;;;;16.49;66.82;98051.16;1668057;85;25145;-86
2021/08/19 02:41:53;;;;;;;;;;;;;;;16.44;66.83;98042.37;1668551;85;20250;-85
2021/08/19 02:44:19;;;;;;;;;;;;;;;16.42;66.87;98043.00;1659637;84;25562;-85
2021/08/19 02:46:45;;;;;;;;;;;;;;;16.41;66.91;98041.86;1698670;83;21940;-85
2021/08/19 02:49:11;;;;;;;;;;;;;;;16.41;66.94;98042.69;1672869;84;26055;-85
2021/08/19 02:51:38;;;;;;;;;;;;;;;16.41;66.98;98037.89;1664117;85;24589;-85
2021/08/19 02:54:04;;;;;;;;;;;;;;;16.38;67.02;98044.30;1675263;84;20342;-84
2021/08/19 02:56:30;;;;;;;;;;;;;;;16.38;67.08;98036.38;1672470;84;24972;-84
2021/08/19 02:58:56;;;;;;;;;;;;;;;16.35;67.10;98032.73;1675020;85;20909;-84
2021/08/19 03:01:22;;;;;;;;;;;;;;;16.34;67.14;98040.31;1649215;86;26034;-85
2021/08/19 03:03:48;;;;;;;;;;;;;;;16.32;67.16;98036.98;1615144;88;24545;-86
2021/08/19 03:06:14;;;;;;;;;;;;;;;16.22;67.19;98025.69;1637525;87;20286;-86
2021/08/19 03:08:40;;;;;;;;;;;;;;;16.26;67.23;98035.78;1643018;86;25086;-89
2021/08/19 03:11:06;;;;;;;;;;;;;;;16.27;67.30;98033.48;1627098;87;22135;-88
2021/08/19 03:13:32;;;;;;;;;;;;;;;16.21;67.32;98034.58;1627899;87;21084;-89
2021/08/19 03:15:58;;;;;;;;;;;;;;;16.22;67.37;98037.56;1627084;87;24561;-89
2021/08/19 03:18:24;;;;;;;;;;;;;;;16.21;67.42;98036.73;1628093;87;20249;-89
2021/08/19 03:20:51;;;;;;;;;;;;;;;16.21;67.48;98032.77;1633807;87;20327;-89
2021/08/19 03:23:19;;;;;;;;;;;;;;;16.19;67.51;98035.24;1610579;87;20474;-85
2021/08/19 03:25:47;;;;;;;;;;;;;;;16.15;67.55;98032.55;1623210;86;26385;-85
2021/08/19 03:28:14;;;;;;;;;;;;;;;16.11;67.60;98034.67;1615728;88;24373;-85
2021/08/19 03:30:40;;;;;;;;;;;;;;;16.13;67.66;98034.52;1616107;88;20302;-84
2021/08/19 03:33:07;;;;;;;;;;;;;;;16.10;67.71;98026.89;1619719;87;25008;-84
2021/08/19 03:35:33;;;;;;;;;;;;;;;16.10;67.79;98024.25;1623616;87;22058;-84
2021/08/19 03:38:00;;;;;;;;;;;;;;;16.09;67.85;98026.06;1626427;87;26053;-84
2021/08/19 03:40:29;;;;;;;;;;;;;;;16.10;67.91;98025.08;1624085;87;24560;-83
2021/08/19 03:42:55;;;;;;;;;;;;;;;16.10;67.97;98026.89;1622639;87;21805;-83
2021/08/19 03:45:21;;;;;;;;;;;;;;;16.11;68.01;98028.06;1625725;87;24979;-84
2021/08/19 03:47:49;;;;;;;;;;;;;;;16.16;68.08;98026.29;1606640;87;20276;-84
2021/08/19 03:50:15;;;;;;;;;;;;;;;16.13;68.13;98023.48;1624260;86;21045;-84
2021/08/19 03:52:42;;;;;;;;;;;;;;;16.07;68.15;98020.13;1621563;87;20447;-84
2021/08/19 03:55:08;;;;;;;;;;;;;;;16.03;68.19;98023.22;1622314;87;20606;-84
2021/08/19 03:57:34;;;;;;;;;;;;;;;16.00;68.24;98021.70;1641632;85;25008;-84
2021/08/19 04:00:00;;;;;;;;;;;;;;;16.02;68.28;98025.03;1652125;85;21999;-84
2021/08/19 04:02:26;;;;;;;;;;;;;;;16.06;68.36;98019.77;1652211;86;26070;-84
2021/08/19 04:04:52;;;;;;;;;;;;;;;16.08;68.46;98025.75;1652084;85;20306;-84
2021/08/19 04:07:18;;;;;;;;;;;;;;;16.07;68.51;98030.68;1652295;86;20391;-84
2021/08/19 04:09:44;;;;;;;;;;;;;;;16.10;68.55;98031.69;1650776;86;20237;-84
2021/08/19 04:12:10;;;;;;;;;;;;;;;16.15;68.60;98039.98;1652181;86;20335;-84
2021/08/19 04:14:36;;;;;;;;;;;;;;;16.15;68.63;98034.70;1652371;86;21014;-84
2021/08/19 04:17:02;;;;;;;;;;;;;;;16.18;68.69;98032.25;1649262;86;24413;-84
2021/08/19 04:19:28;;;;;;;;;;;;;;;16.22;68.75;98027.84;1653787;85;20301;-84
2021/08/19 04:21:54;;;;;;;;;;;;;;;16.25;68.78;98030.19;1650207;86;25003;-84
2021/08/19 04:24:24;;;;;;;;;;;;;;;16.26;68.83;98033.14;1651969;86;22613;-84
2021/08/19 04:26:50;;;;;;;;;;;;;;;16.28;68.85;98029.87;1651852;86;26080;-84
2021/08/19 04:29:16;;;;;;;;;;;;;;;16.32;68.90;98029.06;1650804;86;20340;-84
2021/08/19 04:31:42;;;;;;;;;;;;;;;16.33;68.95;98029.41;1624307;86;34196;-84
2021/08/19 04:34:08;;;;;;;;;;;;;;;16.34;68.98;98031.07;1652960;85;25155;-84
2021/08/19 04:36:37;;;;;;;;;;;;;;;16.31;68.99;98030.88;1652515;85;20242;-83
2021/08/19 04:39:09;;;;;;;;;;;;;;;16.33;69.00;98036.01;1651811;85;26035;-84
2021/08/19 04:41:35;;;;;;;;;;;;;;;16.31;69.00;98035.32;1652208;85;24309;-84
2021/08/19 04:44:01;;;;;;;;;;;;;;;16.33;68.98;98036.01;1652786;86;20249;-84
2021/08/19 04:46:27;;;;;;;;;;;;;;;16.35;69.01;98032.73;1649430;85;20235;-84
2021/08/19 04:48:53;;;;;;;;;;;;;;;16.33;69.01;98033.37;1639633;83;22022;-84
2021/08/19 04:51:19;;;;;;;;;;;;;;;16.34;69.06;98028.43;1691495;83;26061;-84
2021/08/19 04:53:45;;;;;;;;;;;;;;;16.44;69.09;98040.22;1697152;83;20478;-83
2021/08/19 04:56:11;;;;;;;;;;;;;;;16.48;69.14;98033.64;1690413;83;20316;-84
2021/08/19 04:58:38;;;;;;;;;;;;;;;16.53;69.17;98032.72;1696864;83;25643;-84
2021/08/19 05:01:04;;;;;;;;;;;;;;;16.58;69.19;98033.87;1694297;83;22044;-83
2021/08/19 05:03:31;;;;;;;;;;;;;;;16.62;69.22;98037.92;1691078;84;26703;-83
2021/08/19 05:05:57;;;;;;;;;;;;;;;16.63;69.25;98034.80;1694099;83;24639;-84
2021/08/19 05:08:23;;;;;;;;;;;;;;;16.63;69.29;98033.47;1693587;83;20578;-83
2021/08/19 05:10:56;;;;;;;;;;;;;;;16.69;69.33;98036.82;1663447;86;25018;-84
2021/08/19 05:13:24;;;;;;;;;;;;;;;16.71;69.33;98032.19;1660316;85;22658;-83
2021/08/19 05:15:50;;;;;;;;;;;;;;;16.77;69.36;98036.86;1658408;84;26061;-84
2021/08/19 05:18:16;;;;;;;;;;;;;;;16.77;69.37;98031.58;1676524;85;20924;-84
2021/08/19 05:20:42;;;;;;;;;;;;;;;16.76;69.37;98031.23;1660100;85;20329;-83
2021/08/19 05:23:08;;;;;;;;;;;;;;;16.79;69.35;98032.26;1680580;84;20288;-84
2021/08/19 05:25:34;;;;;;;;;;;;;;;16.81;69.37;98035.55;1679130;85;21941;-84
2021/08/19 05:28:05;;;;;;;;;;;;;;;16.84;69.36;98033.11;1691638;84;21137;-84
2021/08/19 05:30:38;;;;;;;;;;;;;;;16.89;69.40;98036.94;1676594;84;25940;-84
2021/08/19 05:33:07;;;;;;;;;;;;;;;16.95;69.46;98039.45;1660819;84;20593;-84
2021/08/19 05:35:33;;;;;;;;;;;;;;;17.02;69.48;98046.58;1680604;83;25044;-84
2021/08/19 05:37:59;;;;;;;;;;;;;;;17.11;69.47;98039.05;1676287;85;22437;-84
2021/08/19 05:40:27;;;;;;;;;;;;;;;17.19;69.50;98041.38;1693748;83;26635;-84
2021/08/19 05:42:52;;;;;;;;;;;;;;;17.25;69.52;98038.10;1691065;84;24708;-83
2021/08/19 05:45:20;;;;;;;;;;;;;;;17.31;69.51;98040.95;1675672;84;20214;-84
2021/08/19 05:47:46;;;;;;;;;;;;;;;17.31;69.51;98039.63;1659248;85;24942;-84
2021/08/19 05:50:12;;;;;;;;;;;;;;;17.37;69.50;98040.31;1679629;84;20356;-84
2021/08/19 05:52:44;;;;;;;;;;;;;;;17.43;69.53;98041.49;1650295;85;21724;-83
2021/08/19 05:55:10;;;;;;;;;;;;;;;17.52;69.56;98038.71;1692609;84;24527;-83
2021/08/19 05:57:36;;;;;;;;;;;;;;;17.58;69.54;98044.69;1687475;84;20399;-83
2021/08/19 06:00:03;;;;;;;;;;;;;;;17.62;69.55;98041.77;1688267;83;24999;-83
2021/08/19 06:02:30;;;;;;;;;;;;;;;17.69;69.53;98046.23;1696083;84;22335;-84
2021/08/19 06:04:57;;;;;;;;;;;;;;;17.76;69.48;98048.58;1688969;84;26719;-84
2021/08/19 06:07:23;;;;;;;;;;;;;;;17.83;69.46;98048.77;1688488;84;24505;-83
2021/08/19 06:09:52;;;;;;;;;;;;;;;17.88;69.43;98039.36;1666012;84;20195;-83
2021/08/19 06:12:18;;;;;;;;;;;;;;;17.91;69.37;98043.48;1687729;84;24896;-84
2021/08/19 06:14:44;;;;;;;;;;;;;;;17.94;69.30;98044.50;1680622;83;21961;-84
2021/08/19 06:17:10;;;;;;;;;;;;;;;17.95;69.27;98050.09;1683276;84;25980;-83
2021/08/19 06:19:36;;;;;;;;;;;;;;;18.01;69.24;98049.94;1685929;84;20271;-83
2021/08/19 06:22:02;;;;;;;;;;;;;;;18.09;69.24;98047.32;1687329;83;20481;-83
2021/08/19 06:24:28;;;;;;;;;;;;;;;18.14;69.24;98048.48;1656724;85;24942;-83
2021/08/19 06:26:54;;;;;;;;;;;;;;;18.21;69.26;98048.66;1656670;85;22057;-84
2021/08/19 06:29:20;;;;;;;;;;;;;;;18.23;69.23;98043.52;1651180;85;21114;-84
2021/08/19 06:31:46;;;;;;;;;;;;;;;18.32;69.20;98037.75;1691637;84;20316;-84
2021/08/19 06:34:14;;;;;;;;;;;;;;;18.37;69.17;98036.75;1683967;83;20814;-84
2021/08/19 06:36:40;;;;;;;;;;;;;;;18.42;69.14;98033.10;1695611;83;24887;-83
2021/08/19 06:39:06;;;;;;;;;;;;;;;18.49;69.12;98034.59;1650211;85;20859;-83
2021/08/19 06:41:32;;;;;;;;;;;;;;;18.55;69.08;98036.09;1653303;85;26140;-84
2021/08/19 06:43:58;;;;;;;;;;;;;;;18.60;69.07;98033.77;1651373;85;20263;-84
2021/08/19 06:46:24;;;;;;;;;;;;;;;18.61;69.05;98039.41;1651893;85;20306;-83
2021/08/19 06:48:50;;;;;;;;;;;;;;;18.65;68.97;98047.38;1657844;85;20693;-84
2021/08/19 06:51:16;;;;;;;;;;;;;;;18.75;68.97;98044.54;1690306;84;20272;-84
2021/08/19 06:53:42;;;;;;;;;;;;;;;18.86;68.98;98044.69;1661385;85;20989;-84
2021/08/19 06:56:08;;;;;;;;;;;;;;;18.93;68.97;98041.17;1658018;84;20948;-84
2021/08/19 06:58:34;;;;;;;;;;;;;;;18.99;68.93;98046.30;1658038;86;20321;-84
2021/08/19 07:01:00;;;;;;;;;;;;;;;19.08;68.96;98050.61;1659690;86;25032;-83
2021/08/19 07:03:26;;;;;;;;;;;;;;;19.15;68.91;98047.58;1676484;83;20251;-84
2021/08/19 07:05:54;;;;;;;;;;;;;;;19.27;68.89;98046.22;1677550;83;26026;-82
2021/08/19 07:08:20;;;;;;;;;;;;;;;19.37;68.83;98045.52;1662316;86;24400;-84
2021/08/19 07:10:54;;;;;;;;;;;;;;;19.46;68.74;98047.69;1678285;85;20379;-83
2021/08/19 07:13:21;;;;;;;;;;;;;;;19.48;68.67;98048.32;1687275;83;25227;-84
2021/08/19 07:15:47;;;;;;;;;;;;;;;19.52;68.56;98044.34;1672347;85;20859;-85
2021/08/19 07:18:14;;;;;;;;;;;;;;;19.59;68.48;98048.77;1678419;83;21002;-84
2021/08/19 07:20:41;;;;;;;;;;;;;;;19.66;68.46;98047.59;1692854;83;24619;-84
2021/08/19 07:23:07;;;;;;;;;;;;;;;19.71;68.41;98037.27;1662496;86;20448;-84
2021/08/19 07:25:34;;;;;;;;;;;;;;;19.77;68.34;98039.23;1678346;85;25017;-83
2021/08/19 07:28:00;;;;;;;;;;;;;;;19.86;68.36;98038.67;1681183;83;21957;-84
2021/08/19 07:30:27;;;;;;;;;;;;;;;19.92;68.31;98041.95;1682866;85;21742;-84
2021/08/19 07:32:53;;;;;;;;;;;;;;;19.93;68.20;98033.82;1694187;83;24427;-84
2021/08/19 07:35:19;;;;;;;;;;;;;;;19.99;68.14;98038.94;1694849;83;20489;-84
2021/08/19 07:37:47;;;;;;;;;;;;;;;20.03;68.09;98041.55;1690498;84;25001;-83
2021/08/19 07:40:18;;;;;;;;;;;;;;;19.99;67.92;98041.09;1689053;83;22005;-84
2021/08/19 07:42:43;;;;;;;;;;;;;;;19.96;67.75;98040.13;1677195;85;26039;-84
2021/08/19 07:45:09;;;;;;;;;;;;;;;19.94;67.64;98033.33;1679861;83;24488;-84
2021/08/19 07:47:36;;;;;;;;;;;;;;;19.96;67.54;98037.47;1681738;83;20221;-84
2021/08/19 07:50:03;;;;;;;;;;;;;;;20.00;67.43;98034.78;1663362;84;25026;-84
2021/08/19 07:52:29;;;;;;;;;;;;;;;20.04;67.33;98036.58;1658944;85;22195;-84
2021/08/19 07:54:59;;;;;;;;;;;;;;;20.06;67.28;98027.94;1666342;85;26097;-84
2021/08/19 07:57:25;;;;;;;;;;;;;;;20.09;67.18;98027.57;1687204;83;24447;-84
2021/08/19 07:59:51;;;;;;;;;;;;;;;20.12;67.06;98032.55;1673670;85;20213;-84
2021/08/19 08:02:17;;;;;;;;;;;;;;;20.18;66.97;98023.88;1697007;84;25787;-84
2021/08/19 08:04:43;;;;;;;;;;;;;;;20.29;66.94;98030.06;1693239;83;20375;-84
2021/08/19 08:07:09;;;;;;;;;;;;;;;20.38;66.88;98018.42;1678523;84;25997;-84
2021/08/19 08:09:35;;;;;;;;;;;;;;;20.49;66.85;98021.65;1679905;84;24541;-84
2021/08/19 08:12:01;;;;;;;;;;;;;;;20.58;66.81;98020.56;1681279;84;20269;-85
2021/08/19 08:14:30;;;;;;;;;;;;;;;20.61;66.69;98021.55;1693146;83;25037;-85
2021/08/19 08:16:57;;;;;;;;;;;;;;;20.66;66.58;98021.33;1693348;83;20752;-85
2021/08/19 08:19:24;;;;;;;;;;;;;;;20.79;66.58;98022.02;1684213;85;26235;-84
2021/08/19 08:21:50;;;;;;;;;;;;;;;20.91;66.54;98024.56;1663406;85;20261;-84
2021/08/19 08:24:17;;;;;;;;;;;;;;;20.99;66.42;98024.48;1681912;83;20219;-85
2021/08/19 08:26:43;;;;;;;;;;;;;;;21.11;66.29;98023.00;1681492;84;25111;-84
2021/08/19 08:29:09;;;;;;;;;;;;;;;21.28;66.25;98026.33;1695915;83;20316;-84
2021/08/19 08:31:35;;;;;;;;;;;;;;;21.33;66.03;98031.92;1663362;86;20794;-85
2021/08/19 08:34:07;;;;;;;;;;;;;;;21.36;65.81;98030.24;1695830;83;25370;-85
2021/08/19 08:36:33;;;;;;;;;;;;;;;21.40;65.59;98028.03;1677853;83;20231;-85
2021/08/19 08:38:59;;;;;;;;;;;;;;;21.41;65.35;98025.69;1700256;83;24896;-84
2021/08/19 08:41:25;;;;;;;;;;;;;;;21.42;65.18;98025.52;1680605;83;20318;-84
2021/08/19 08:43:52;;;;;;;;;;;;;;;21.42;64.97;98028.17;1696994;83;25949;-84
2021/08/19 08:46:19;;;;;;;;;;;;;;;21.46;64.89;98024.63;1699042;83;24461;-84
2021/08/19 08:48:46;;;;;;;;;;;;;;;21.52;64.86;98020.72;1682630;83;20263;-85
2021/08/19 08:51:13;;;;;;;;;;;;;;;21.55;64.75;98027.49;1680810;84;24954;-84
2021/08/19 08:53:40;;;;;;;;;;;;;;;21.58;64.57;98029.80;1674413;85;21965;-84
2021/08/19 08:56:06;;;;;;;;;;;;;;;21.58;64.40;98017.81;1654530;85;27041;-84
2021/08/19 08:58:32;;;;;;;;;;;;;;;21.64;64.28;98027.73;1656708;85;24450;-84
2021/08/19 09:00:58;;;;;;;;;;;;;;;21.73;64.18;98021.27;1659736;86;20330;-85
2021/08/19 09:03:25;;;;;;;;;;;;;;;21.84;64.04;98023.95;1661300;85;20233;-84
2021/08/19 09:05:52;;;;;;;;;;;;;;;21.89;63.83;98033.03;1678187;85;22035;-84
2021/08/19 09:08:22;;;;;;;;;;;;;;;21.90;63.65;98036.02;1657539;85;26827;-84
2021/08/19 09:10:53;;;;;;;;;;;;;;;21.84;63.26;98030.61;1683460;84;24525;-84
2021/08/19 09:13:23;;;;;;;;;;;;;;;21.82;63.01;98036.12;1696115;83;20209;-84
2021/08/19 09:15:51;;;;;;;;;;;;;;;21.81;62.78;98033.16;1662419;85;22792;-84
2021/08/19 09:18:28;;;;;;;;;;;;;;;21.75;62.55;98031.24;1660373;85;21990;-84
2021/08/19 09:20:54;;;;;;;;;;;;;;;21.64;62.29;98036.55;1677666;85;26651;-84
2021/08/19 09:23:23;;;;;;;;;;;;;;;21.54;62.05;98028.53;1677005;83;24375;-84
2021/08/19 09:25:48;;;;;;;;;;;;;;;21.54;61.91;98031.20;1687460;83;20317;-84
2021/08/19 09:28:27;;;;;;;;;;;;;;;21.59;61.92;98030.95;1661246;86;24946;-84
2021/08/19 09:30:52;;;;;;;;;;;;;;;21.64;61.86;98036.55;1670875;85;21407;-84
2021/08/19 09:33:23;;;;;;;;;;;;;;;21.73;61.87;98030.59;1677934;85;26805;-84
2021/08/19 09:35:50;;;;;;;;;;;;;;;21.81;61.75;98029.67;1683527;83;24519;-84
2021/08/19 09:38:18;;;;;;;;;;;;;;;21.87;61.57;98029.75;1674156;85;20207;-84
2021/08/19 09:41:03;;;;;;;;;;;;;;;21.94;61.48;98034.65;1680861;83;25053;-84
2021/08/19 09:43:40;;;;;;;;;;;;;;;21.99;61.31;98038.91;1675847;85;21592;-84
2021/08/19 09:46:14;;;;;;;;;;;;;;;22.02;61.05;98033.72;1678748;84;26582;-84
2021/08/19 09:48:41;;;;;;;;;;;;;;;22.01;60.69;98032.06;1690590;83;24614;-84
2021/08/19 09:51:11;;;;;;;;;;;;;;;22.04;60.43;98036.50;1678984;85;20474;-84
2021/08/19 09:53:48;;;;;;;;;;;;;;;22.08;60.25;98032.97;1670524;83;25078;-84
2021/08/19 09:56:15;;;;;;;;;;;;;;;22.14;60.10;98034.05;1676668;84;22019;-84
2021/08/19 09:58:41;;;;;;;;;;;;;;;22.13;59.74;98031.06;1675223;85;26058;-84
2021/08/19 10:01:08;;;;;;;;;;;;;;;22.13;59.39;98030.55;1677923;85;24404;-84
2021/08/19 10:03:35;;;;;;;;;;;;;;;22.18;59.20;98032.14;1677173;85;20238;-84
2021/08/19 10:06:01;;;;;;;;;;;;;;;22.24;59.05;98026.05;1673815;85;25020;-84
2021/08/19 10:08:28;;;;;;;;;;;;;;;22.27;58.79;98026.16;1645377;86;22045;-84
2021/08/19 10:10:57;;;;;;;;;;;;;;;22.32;58.65;98027.74;1609323;86;26049;-84
2021/08/19 10:13:23;;;;;;;;;;;;;;;22.37;58.52;98025.33;1632527;87;24521;-84
2021/08/19 10:15:52;;;;;;;;;;;;;;;22.42;58.42;98030.94;1636630;87;20478;-84
2021/08/19 10:18:19;;;;;;;;;;;;;;;22.50;58.40;98032.95;1636293;87;25072;-84
2021/08/19 10:20:47;;;;;;;;;;;;;;;22.50;58.26;98026.79;1620461;87;21949;-84
2021/08/19 10:23:14;;;;;;;;;;;;;;;22.50;58.12;98026.28;1617668;87;26141;-84
2021/08/19 10:25:40;;;;;;;;;;;;;;;22.45;57.92;98028.70;1646414;86;24504;-89
2021/08/19 10:28:18;;;;;;;;;;;;;;;22.46;57.85;98029.03;1648822;85;20562;-89
2021/08/19 10:30:47;;;;;;;;;;;;;;;22.53;57.84;98031.72;1628126;86;20250;-89
2021/08/19 10:33:14;;;;;;;;;;;;;;;22.57;57.78;98029.02;1647465;86;21955;-88
2021/08/19 10:35:40;;;;;;;;;;;;;;;22.65;57.77;98030.70;1647290;86;25965;-89
2021/08/19 10:38:06;;;;;;;;;;;;;;;22.74;57.78;98029.08;1648360;86;25205;-89
2021/08/19 10:40:37;;;;;;;;;;;;;;;22.80;57.73;98028.28;1646269;86;20221;-90
2021/08/19 10:43:21;;;;;;;;;;;;;;;22.79;57.57;98027.16;1648299;86;25523;-90
2021/08/19 10:46:06;;;;;;;;;;;;;;;22.75;57.43;98024.03;1650571;85;22097;-89
2021/08/19 10:48:43;;;;;;;;;;;;;;;22.74;57.38;98027.75;1643934;86;26069;-90
2021/08/19 10:51:09;;;;;;;;;;;;;;;22.77;57.30;98025.19;1650948;84;25186;-90
2021/08/19 10:53:36;;;;;;;;;;;;;;;22.78;57.07;98020.17;1669269;85;20272;-90
2021/08/19 10:56:02;;;;;;;;;;;;;;;22.79;56.87;98017.82;1646020;85;25045;-90
2021/08/19 10:58:29;;;;;;;;;;;;;;;22.79;56.67;98020.49;1676723;84;20324;-89
2021/08/19 11:00:58;;;;;;;;;;;;;;;22.78;56.50;98029.00;1694108;84;25493;-89
2021/08/19 11:03:38;;;;;;;;;;;;;;;22.84;56.48;98029.56;1650287;85;24518;-89
2021/08/19 11:06:10;;;;;;;;;;;;;;;22.85;56.37;98023.72;1659003;85;20260;-89
2021/08/19 11:08:44;;;;;;;;;;;;;;;22.85;56.26;98023.21;1655592;85;24982;-89
2021/08/19 11:11:11;;;;;;;;;;;;;;;22.78;55.94;98025.51;1652254;85;21630;-89
2021/08/19 11:13:38;;;;;;;;;;;;;;;22.70;55.71;98026.43;1651060;85;26723;-89
2021/08/19 11:16:09;;;;;;;;;;;;;;;22.66;55.63;98029.18;1674576;83;24609;-89
2021/08/19 11:18:35;;;;;;;;;;;;;;;22.68;55.64;98024.99;1656767;85;20316;-89
2021/08/19 11:21:03;;;;;;;;;;;;;;;22.69;55.63;98030.14;1663141;85;25036;-89
2021/08/19 11:23:31;;;;;;;;;;;;;;;22.67;55.66;98024.16;1655982;85;22105;-88
2021/08/19 11:26:03;;;;;;;;;;;;;;;22.69;55.72;98026.14;1679606;84;26087;-89
2021/08/19 11:28:36;;;;;;;;;;;;;;;22.72;55.76;98023.61;1687034;83;24612;-89
2021/08/19 11:31:12;;;;;;;;;;;;;;;22.74;55.75;98017.59;1689961;83;20239;-89
2021/08/19 11:33:39;;;;;;;;;;;;;;;22.76;55.64;98020.86;1687630;83;25072;-89
2021/08/19 11:36:07;;;;;;;;;;;;;;;22.79;55.62;98013.82;1685666;83;22008;-89
2021/08/19 11:38:34;;;;;;;;;;;;;;;22.80;55.59;98018.14;1686182;83;26024;-85
2021/08/19 11:41:03;;;;;;;;;;;;;;;22.84;55.56;98018.89;1693419;83;24448;-84
2021/08/19 11:43:30;;;;;;;;;;;;;;;22.90;55.57;98015.95;1688399;83;20543;-84
2021/08/19 11:46:07;;;;;;;;;;;;;;;22.97;55.61;98014.13;1689752;83;25039;-86
2021/08/19 11:48:34;;;;;;;;;;;;;;;23.00;55.63;98016.42;1667726;85;22049;-84
2021/08/19 11:51:02;;;;;;;;;;;;;;;22.93;55.46;98017.71;1684516;84;26279;-84
2021/08/19 11:53:29;;;;;;;;;;;;;;;22.85;55.33;98010.38;1657247;85;25247;-84
2021/08/19 11:55:57;;;;;;;;;;;;;;;22.76;55.21;98021.69;1656877;85;20254;-84
2021/08/19 11:58:24;;;;;;;;;;;;;;;22.70;55.15;98021.60;1658306;85;25006;-84
2021/08/19 12:00:58;;;;;;;;;;;;;;;22.58;54.97;98029.84;1660020;85;22727;-84
2021/08/19 12:03:25;;;;;;;;;;;;;;;22.43;54.89;98028.06;1661057;84;26106;-84
2021/08/19 12:06:04;;;;;;;;;;;;;;;22.31;54.79;98037.58;1692089;83;24462;-84
2021/08/19 12:08:31;;;;;;;;;;;;;;;22.24;54.79;98042.55;1678149;84;20309;-84
2021/08/19 12:10:58;;;;;;;;;;;;;;;22.17;54.77;98038.98;1669934;84;24977;-84
2021/08/19 12:13:24;;;;;;;;;;;;;;;22.11;54.79;98033.41;1660933;84;22076;-83
2021/08/19 12:15:51;;;;;;;;;;;;;;;22.16;54.86;98036.83;1662391;84;26005;-83
2021/08/19 12:18:21;;;;;;;;;;;;;;;22.22;54.93;98028.07;1664309;84;24241;-87
2021/08/19 12:20:48;;;;;;;;;;;;;;;22.29;55.01;98028.14;1668070;84;20199;-87
2021/08/19 12:23:22;;;;;;;;;;;;;;;22.36;55.15;98024.53;1664596;84;25111;-86
2021/08/19 12:25:48;;;;;;;;;;;;;;;22.44;55.20;98027.55;1691566;83;22871;-86
2021/08/19 12:28:18;;;;;;;;;;;;;;;22.54;55.26;98024.88;1695047;83;26145;-86
2021/08/19 12:30:54;;;;;;;;;;;;;;;22.62;55.31;98022.59;1691115;83;24636;-84
2021/08/19 12:33:24;;;;;;;;;;;;;;;22.70;55.41;98025.09;1668439;84;20614;-84
2021/08/19 12:35:51;;;;;;;;;;;;;;;22.76;55.39;98015.52;1631228;84;25145;-85
2021/08/19 12:38:19;;;;;;;;;;;;;;;22.91;55.49;98015.73;1689176;83;22005;-84
2021/08/19 12:40:45;;;;;;;;;;;;;;;23.06;55.56;98014.31;1655698;85;26009;-85
2021/08/19 12:43:11;;;;;;;;;;;;;;;23.23;55.63;98017.48;1665740;84;24563;-89
2021/08/19 12:45:39;;;;;;;;;;;;;;;23.30;55.61;98018.32;1668497;84;20163;-88
2021/08/19 12:48:06;;;;;;;;;;;;;;;23.30;55.56;98008.47;1667499;84;24983;-89
2021/08/19 12:50:33;;;;;;;;;;;;;;;23.31;55.47;98013.30;1660258;84;22214;-89
2021/08/19 12:53:09;;;;;;;;;;;;;;;23.31;55.40;98017.30;1672150;84;25949;-89